Time;durP1;ratioP1;P1;durP2;ratioP2;P2;SDS_P1;SDS_P2;PMS_P1;PMS_P2;Temp;Humidity;BMP_temperature;BMP_pressure;BME280_temperature;BME280_humidity;BME280_pressure;Samples;Min_cycle;Max_cycle;Signal;HPM_P1;HPM_P2
2023/04/14 00:01:23;;;;;;;12.63;8.47;;;18.60;53.70;;;;;;5088764;28;20559;-80
2023/04/14 00:03:51;;;;;;;15.80;8.50;;;18.60;53.70;;;;;;5080989;28;20453;-80
2023/04/14 00:06:19;;;;;;;11.67;7.90;;;18.60;53.80;;;;;;5089404;28;20453;-80
2023/04/14 00:08:47;;;;;;;13.33;6.90;;;18.60;53.80;;;;;;5084561;28;20468;-79
2023/04/14 00:11:15;;;;;;;11.50;7.53;;;18.50;53.80;;;;;;5085811;28;20442;-80
2023/04/14 00:13:45;;;;;;;11.20;7.10;;;18.50;53.70;;;;;;5086740;28;20430;-80
2023/04/14 00:16:12;;;;;;;13.50;7.30;;;18.50;53.70;;;;;;5085511;28;20437;-80
2023/04/14 00:18:41;;;;;;;10.30;6.93;;;18.50;53.80;;;;;;5086512;28;20476;-80
2023/04/14 00:21:08;;;;;;;13.50;7.53;;;18.40;53.70;;;;;;5084577;28;20499;-80
2023/04/14 00:23:36;;;;;;;10.40;6.93;;;18.40;53.70;;;;;;5080218;28;20458;-78
2023/04/14 00:26:05;;;;;;;10.10;6.60;;;18.40;53.70;;;;;;5086071;28;20463;-81
2023/04/14 00:28:33;;;;;;;11.20;6.67;;;18.40;53.80;;;;;;5089215;28;20553;-79
2023/04/14 00:31:02;;;;;;;12.40;6.83;;;18.40;53.80;;;;;;5079199;28;20453;-78
2023/04/14 00:33:30;;;;;;;11.93;7.00;;;18.40;53.70;;;;;;5088218;28;20449;-78
2023/04/14 00:35:57;;;;;;;13.50;6.70;;;18.30;53.70;;;;;;5078207;28;20426;-80
2023/04/14 00:38:25;;;;;;;9.57;6.30;;;18.30;53.70;;;;;;5079070;28;20828;-79
2023/04/14 00:40:53;;;;;;;9.50;6.80;;;18.30;53.80;;;;;;5083732;28;20464;-79
2023/04/14 00:43:21;;;;;;;10.43;6.80;;;18.30;53.70;;;;;;5077462;28;20429;-79
2023/04/14 00:45:50;;;;;;;11.90;6.30;;;18.30;53.80;;;;;;5083439;28;20452;-80
2023/04/14 00:48:19;;;;;;;9.60;6.30;;;18.30;53.70;;;;;;5081661;28;20503;-79
2023/04/14 00:50:47;;;;;;;11.93;6.70;;;18.20;53.80;;;;;;5086209;28;20441;-78
2023/04/14 00:53:15;;;;;;;8.50;5.93;;;18.20;53.80;;;;;;5089155;28;20457;-79
2023/04/14 00:55:43;;;;;;;10.80;6.40;;;18.20;53.80;;;;;;5087344;28;20441;-79
2023/04/14 00:58:11;;;;;;;9.80;5.80;;;18.20;53.90;;;;;;5079840;28;20449;-78
2023/04/14 01:00:39;;;;;;;14.63;6.50;;;18.20;53.90;;;;;;5080632;28;20477;-78
2023/04/14 01:03:07;;;;;;;10.17;6.20;;;18.20;53.90;;;;;;5078420;28;20489;-79
2023/04/14 01:05:37;;;;;;;11.10;6.07;;;18.10;53.80;;;;;;5082147;28;20452;-79
2023/04/14 01:08:05;;;;;;;9.70;6.00;;;18.10;53.80;;;;;;5083025;28;20472;-78
2023/04/14 01:10:36;;;;;;;8.57;5.90;;;18.10;53.70;;;;;;5083897;28;20472;-80
2023/04/14 01:13:15;;;;;;;9.60;6.03;;;18.10;53.80;;;;;;5089513;28;20453;-80
2023/04/14 01:15:47;;;;;;;8.17;5.27;;;18.10;53.90;;;;;;5093167;28;20455;-79
2023/04/14 01:18:18;;;;;;;10.10;5.80;;;18.00;53.80;;;;;;5089313;28;20459;-79
2023/04/14 01:20:49;;;;;;;9.30;5.80;;;18.00;53.70;;;;;;5085530;28;20445;-79
2023/04/14 01:23:20;;;;;;;7.13;5.37;;;18.10;53.90;;;;;;5092909;28;20452;-80
2023/04/14 01:26:20;;;;;;;11.30;6.13;;;18.00;53.80;;;;;;5080144;28;20457;-80
2023/04/14 01:29:24;;;;;;;7.53;5.13;;;18.00;53.70;;;;;;5092736;28;20473;-80
2023/04/14 01:31:59;;;;;;;9.40;5.70;;;18.00;53.70;;;;;;5057939;28;20444;-81
2023/04/14 01:34:31;;;;;;;11.00;5.40;;;18.00;53.80;;;;;;5078965;28;20451;-80
2023/04/14 01:37:04;;;;;;;10.10;5.60;;;17.90;53.60;;;;;;5088468;28;20448;-79
2023/04/14 01:39:35;;;;;;;7.90;4.67;;;17.90;53.70;;;;;;5086036;28;20476;-79
2023/04/14 01:42:06;;;;;;;7.60;5.20;;;17.90;53.70;;;;;;5090808;28;20464;-79
2023/04/14 01:44:34;;;;;;;7.27;5.00;;;17.90;53.70;;;;;;5093308;28;20453;-79
2023/04/14 01:47:05;;;;;;;13.10;5.33;;;17.90;53.70;;;;;;5079957;28;20458;-79
2023/04/14 01:49:33;;;;;;;6.10;4.83;;;17.80;53.60;;;;;;5087002;28;20476;-81
2023/04/14 01:52:02;;;;;;;6.70;4.87;;;17.80;53.70;;;;;;5086479;28;20479;-79
2023/04/14 01:54:30;;;;;;;8.10;5.13;;;17.80;53.80;;;;;;5084222;28;20460;-80
2023/04/14 01:57:00;;;;;;;6.20;5.00;;;17.80;53.80;;;;;;5089772;28;20563;-79
2023/04/14 01:59:28;;;;;;;5.93;4.93;;;17.80;53.80;;;;;;5092116;28;20471;-79
2023/04/14 02:01:56;;;;;;;6.30;4.60;;;17.80;53.70;;;;;;5085478;28;20464;-79
2023/04/14 02:04:26;;;;;;;8.47;4.80;;;17.70;53.60;;;;;;5093208;28;20477;-80
2023/04/14 02:06:54;;;;;;;8.50;4.73;;;17.70;53.70;;;;;;5081134;28;20464;-80
2023/04/14 02:09:22;;;;;;;5.90;4.77;;;17.70;53.70;;;;;;5092761;28;20476;-80
2023/04/14 02:11:50;;;;;;;5.57;4.77;;;17.70;53.70;;;;;;5083127;28;20476;-81
2023/04/14 02:14:18;;;;;;;8.20;5.23;;;17.70;53.80;;;;;;5085579;28;20445;-80
2023/04/14 02:16:45;;;;;;;6.43;4.70;;;17.60;53.70;;;;;;5092113;28;20441;-79
2023/04/14 02:19:14;;;;;;;7.03;4.97;;;17.60;53.70;;;;;;5085676;28;20531;-78
2023/04/14 02:21:43;;;;;;;7.50;5.30;;;17.60;53.70;;;;;;5091083;28;20473;-80
2023/04/14 02:24:11;;;;;;;6.90;4.90;;;17.60;53.70;;;;;;5091618;28;20461;-80
2023/04/14 02:26:42;;;;;;;8.93;5.43;;;17.60;53.70;;;;;;5091285;28;20456;-81
2023/04/14 02:29:12;;;;;;;7.10;5.13;;;17.60;53.70;;;;;;5082209;28;20469;-79
2023/04/14 02:31:42;;;;;;;8.03;4.97;;;17.50;53.50;;;;;;5085129;28;20440;-80
2023/04/14 02:34:11;;;;;;;7.40;4.80;;;17.50;53.60;;;;;;5091975;28;20453;-77
2023/04/14 02:36:40;;;;;;;5.93;4.10;;;17.50;53.70;;;;;;5092632;28;20445;-79
2023/04/14 02:39:11;;;;;;;5.97;4.80;;;17.50;53.60;;;;;;5078040;28;20469;-80
2023/04/14 02:41:40;;;;;;;8.90;4.80;;;17.50;53.60;;;;;;5082908;28;20453;-78
2023/04/14 02:44:11;;;;;;;5.13;4.00;;;17.40;53.60;;;;;;5095430;28;20488;-79
2023/04/14 02:46:41;;;;;;;7.80;4.57;;;17.40;53.40;;;;;;5094320;28;20512;-79
2023/04/14 02:49:10;;;;;;;6.10;3.87;;;17.40;53.60;;;;;;5083696;28;21072;-80
2023/04/14 02:51:40;;;;;;;8.20;4.80;;;17.40;53.60;;;;;;5085113;28;20463;-80
2023/04/14 02:54:10;;;;;;;5.90;4.50;;;17.40;53.60;;;;;;5094473;28;20445;-80
2023/04/14 02:56:38;;;;;;;7.77;4.40;;;17.30;53.50;;;;;;5086529;28;20893;-80
2023/04/14 02:59:06;;;;;;;4.87;4.20;;;17.30;53.60;;;;;;5072972;28;20468;-79
2023/04/14 03:01:34;;;;;;;5.60;4.43;;;17.30;53.60;;;;;;5090738;28;20455;-78
2023/04/14 03:04:02;;;;;;;5.87;4.30;;;17.30;53.70;;;;;;5086754;28;20439;-78
2023/04/14 03:06:30;;;;;;;5.40;4.30;;;17.30;53.60;;;;;;5085512;28;20472;-79
2023/04/14 03:08:58;;;;;;;4.77;3.90;;;17.30;53.50;;;;;;5091793;28;20471;-79
2023/04/14 03:11:28;;;;;;;6.23;4.17;;;17.30;53.50;;;;;;5076442;28;20442;-79
2023/04/14 03:13:56;;;;;;;6.77;4.33;;;17.30;53.50;;;;;;5086358;28;20467;-80
2023/04/14 03:16:24;;;;;;;4.90;3.90;;;17.20;53.50;;;;;;5075626;28;20446;-81
2023/04/14 03:18:53;;;;;;;5.50;4.20;;;17.20;53.50;;;;;;5089141;28;20503;-80
2023/04/14 03:21:22;;;;;;;6.80;4.50;;;17.20;53.50;;;;;;5087058;28;20464;-80
2023/04/14 03:23:49;;;;;;;5.10;4.50;;;17.20;53.50;;;;;;5083790;28;20479;-80
2023/04/14 03:26:18;;;;;;;6.17;4.30;;;17.20;53.60;;;;;;5091294;28;20448;-79
2023/04/14 03:28:49;;;;;;;5.27;3.50;;;17.20;53.60;;;;;;5088317;28;20472;-79
2023/04/14 03:31:17;;;;;;;4.50;3.87;;;17.20;53.60;;;;;;5082932;28;20450;-79
2023/04/14 03:33:47;;;;;;;6.37;4.37;;;17.10;53.40;;;;;;5089229;28;20453;-80
2023/04/14 03:36:15;;;;;;;6.77;4.43;;;17.10;53.50;;;;;;5085698;28;20452;-81
2023/04/14 03:38:43;;;;;;;4.80;3.97;;;17.10;53.50;;;;;;5074343;28;20469;-81
2023/04/14 03:41:11;;;;;;;4.13;3.60;;;17.10;53.50;;;;;;5086128;28;20441;-81
2023/04/14 03:43:39;;;;;;;4.67;3.80;;;17.10;53.60;;;;;;5080813;28;20473;-79
2023/04/14 03:46:09;;;;;;;3.77;3.47;;;17.10;53.50;;;;;;5089095;28;20456;-80
2023/04/14 03:48:41;;;;;;;5.73;3.83;;;17.00;53.40;;;;;;5081022;28;20998;-80
2023/04/14 03:51:09;;;;;;;3.77;3.47;;;17.10;53.50;;;;;;5083463;28;20455;-80
2023/04/14 03:53:39;;;;;;;4.40;3.70;;;17.10;53.50;;;;;;5082363;28;20448;-79
2023/04/14 03:56:07;;;;;;;5.00;4.00;;;17.00;53.40;;;;;;5082670;28;20547;-79
2023/04/14 03:58:35;;;;;;;4.50;3.90;;;17.00;53.50;;;;;;5089776;28;20468;-79
2023/04/14 04:01:03;;;;;;;3.70;3.40;;;17.00;53.40;;;;;;5074865;28;20447;-79
2023/04/14 04:03:33;;;;;;;6.97;4.10;;;17.00;53.40;;;;;;5089082;28;20472;-79
2023/04/14 04:06:03;;;;;;;4.20;3.73;;;17.00;53.40;;;;;;5082963;28;20461;-78
2023/04/14 04:08:31;;;;;;;3.67;3.37;;;16.90;53.40;;;;;;5090168;28;20455;-79
2023/04/14 04:10:58;;;;;;;4.27;3.63;;;16.90;53.50;;;;;;5081251;28;20461;-79
2023/04/14 04:13:27;;;;;;;4.57;3.43;;;16.90;53.40;;;;;;5091650;28;20440;-79
2023/04/14 04:15:55;;;;;;;4.03;3.60;;;16.90;53.40;;;;;;5083034;28;20544;-79
2023/04/14 04:18:23;;;;;;;3.53;3.23;;;16.90;53.40;;;;;;5083099;28;20445;-79
2023/04/14 04:20:52;;;;;;;4.00;3.37;;;16.90;53.50;;;;;;5082354;28;20455;-79
2023/04/14 04:23:21;;;;;;;3.50;3.20;;;16.90;53.40;;;;;;5088331;28;20460;-79
2023/04/14 04:25:48;;;;;;;4.10;3.60;;;16.80;53.40;;;;;;5088427;28;20441;-79
2023/04/14 04:28:17;;;;;;;4.23;3.50;;;16.80;53.40;;;;;;5083424;28;20444;-79
2023/04/14 04:30:45;;;;;;;4.90;3.30;;;16.80;53.30;;;;;;5076080;28;20462;-79
2023/04/14 04:33:14;;;;;;;3.60;3.30;;;16.80;53.40;;;;;;5093019;28;20437;-79
2023/04/14 04:35:42;;;;;;;3.50;3.20;;;16.80;53.30;;;;;;5073886;28;20549;-79
2023/04/14 04:38:11;;;;;;;3.50;3.20;;;16.80;53.30;;;;;;5092460;28;20460;-79
2023/04/14 04:40:40;;;;;;;3.43;3.13;;;16.70;53.30;;;;;;5086273;28;20466;-80
2023/04/14 04:43:08;;;;;;;3.83;3.37;;;16.70;53.30;;;;;;5094731;28;20464;-80
2023/04/14 04:45:44;;;;;;;4.13;3.20;;;16.70;53.20;;;;;;5085778;28;20452;-79
2023/04/14 04:48:13;;;;;;;4.37;3.37;;;16.70;53.30;;;;;;5088950;28;20498;-79
2023/04/14 04:50:41;;;;;;;3.70;2.90;;;16.70;53.40;;;;;;5083406;28;20473;-79
2023/04/14 04:53:11;;;;;;;4.17;3.77;;;16.70;53.40;;;;;;5088440;28;20530;-77
2023/04/14 04:55:40;;;;;;;4.67;3.27;;;16.70;53.30;;;;;;5085783;28;20544;-79
2023/04/14 04:58:08;;;;;;;3.87;3.50;;;16.70;53.30;;;;;;5087783;28;20449;-79
2023/04/14 05:00:36;;;;;;;4.60;3.50;;;16.70;53.30;;;;;;5084246;28;20464;-80
2023/04/14 05:03:04;;;;;;;4.67;3.07;;;16.70;53.20;;;;;;5080461;28;20470;-80
2023/04/14 05:05:35;;;;;;;3.50;3.07;;;16.70;53.20;;;;;;5090958;28;20484;-81
2023/04/14 05:08:03;;;;;;;5.63;3.27;;;16.70;53.20;;;;;;5078950;28;20571;-79
2023/04/14 05:10:33;;;;;;;4.13;3.00;;;16.60;53.30;;;;;;5087085;28;20471;-80
2023/04/14 05:13:01;;;;;;;3.27;3.00;;;16.70;53.30;;;;;;5093939;28;20539;-78
2023/04/14 05:15:29;;;;;;;3.57;3.27;;;16.60;53.30;;;;;;5092442;28;20445;-79
2023/04/14 05:17:58;;;;;;;3.70;3.33;;;16.70;53.40;;;;;;5093394;28;20429;-79
2023/04/14 05:20:27;;;;;;;3.23;2.93;;;16.60;53.20;;;;;;5085489;28;20457;-78
2023/04/14 05:22:55;;;;;;;4.00;3.43;;;16.60;53.30;;;;;;5084128;28;20492;-79
2023/04/14 05:25:23;;;;;;;3.17;2.87;;;16.60;53.20;;;;;;5092104;28;20460;-79
2023/04/14 05:27:53;;;;;;;3.93;3.40;;;16.60;53.30;;;;;;5089833;28;20463;-79
2023/04/14 05:30:21;;;;;;;6.73;3.50;;;16.60;53.20;;;;;;5096259;28;20475;-79
2023/04/14 05:32:50;;;;;;;4.73;3.47;;;16.60;53.30;;;;;;5090771;28;20450;-79
2023/04/14 05:35:18;;;;;;;3.33;3.03;;;16.60;53.30;;;;;;5080222;28;20532;-79
2023/04/14 05:37:46;;;;;;;4.10;3.70;;;16.60;53.30;;;;;;5083976;28;20548;-79
2023/04/14 05:40:14;;;;;;;5.87;3.87;;;16.70;53.40;;;;;;5091508;28;20859;-79
2023/04/14 05:42:42;;;;;;;3.80;3.00;;;16.70;53.40;;;;;;5089606;28;20464;-79
2023/04/14 05:45:11;;;;;;;3.80;3.40;;;16.60;53.30;;;;;;5087789;28;20559;-79
2023/04/14 05:47:40;;;;;;;3.70;3.30;;;16.60;53.40;;;;;;5092613;28;20468;-79
2023/04/14 05:50:08;;;;;;;4.93;3.30;;;16.60;53.40;;;;;;5093788;28;20476;-80
2023/04/14 05:52:36;;;;;;;2.90;2.70;;;16.70;53.40;;;;;;5099250;28;20444;-81
2023/04/14 05:55:05;;;;;;;3.57;2.90;;;16.70;53.40;;;;;;5095362;28;20433;-79
2023/04/14 05:57:33;;;;;;;6.40;4.80;;;16.70;53.60;;;;;;5091699;28;20814;-79
2023/04/14 06:00:02;;;;;;;5.63;4.90;;;16.70;53.50;;;;;;5083223;28;20473;-79
2023/04/14 06:02:31;;;;;;;9.77;6.13;;;16.70;53.50;;;;;;5088387;28;20436;-79
2023/04/14 06:04:59;;;;;;;10.57;5.93;;;16.70;53.60;;;;;;5088967;28;20519;-79
2023/04/14 06:07:27;;;;;;;8.27;6.70;;;16.80;53.60;;;;;;5092886;28;20436;-79
2023/04/14 06:09:55;;;;;;;9.60;7.10;;;16.80;53.70;;;;;;5079038;28;20467;-79
2023/04/14 06:12:23;;;;;;;10.97;7.43;;;16.80;53.80;;;;;;5091807;28;20823;-79
2023/04/14 06:14:50;;;;;;;11.47;7.93;;;16.80;53.80;;;;;;5089541;28;20434;-79
2023/04/14 06:17:18;;;;;;;10.27;8.43;;;16.90;54.00;;;;;;5084083;28;20445;-79
2023/04/14 06:19:48;;;;;;;11.50;9.00;;;16.90;54.00;;;;;;5090782;28;20477;-79
2023/04/14 06:22:18;;;;;;;10.27;8.00;;;17.00;54.10;;;;;;5104100;28;20425;-80
2023/04/14 06:24:46;;;;;;;11.67;9.10;;;17.00;54.20;;;;;;5115275;28;20472;-79
2023/04/14 06:27:14;;;;;;;9.90;8.27;;;17.10;54.40;;;;;;5116233;28;20416;-80
2023/04/14 06:29:42;;;;;;;10.93;8.77;;;17.10;54.40;;;;;;5113421;28;20456;-79
2023/04/14 06:32:10;;;;;;;11.90;9.00;;;17.20;54.60;;;;;;5103682;28;20455;-79
2023/04/14 06:34:38;;;;;;;12.03;9.03;;;17.20;54.70;;;;;;5104388;28;20445;-79
2023/04/14 06:37:07;;;;;;;11.30;8.90;;;17.30;54.90;;;;;;5106409;28;20445;-80
2023/04/14 06:39:35;;;;;;;12.13;9.13;;;17.40;54.90;;;;;;5096933;28;20476;-78
2023/04/14 06:42:03;;;;;;;11.50;8.70;;;17.40;55.10;;;;;;5101629;28;20452;-79
2023/04/14 06:44:31;;;;;;;10.97;8.23;;;17.50;55.30;;;;;;5101826;28;20476;-79
2023/04/14 06:46:58;;;;;;;9.40;8.03;;;17.50;55.30;;;;;;5110036;28;20433;-80
2023/04/14 06:49:26;;;;;;;11.80;8.87;;;17.60;55.50;;;;;;5094827;28;20452;-79
2023/04/14 06:51:54;;;;;;;12.80;8.40;;;17.70;55.60;;;;;;5081851;28;20449;-79
2023/04/14 06:54:23;;;;;;;9.97;8.03;;;17.70;55.70;;;;;;5086305;28;20452;-78
2023/04/14 06:56:52;;;;;;;10.10;8.00;;;17.80;55.80;;;;;;5086211;28;20453;-79
2023/04/14 06:59:21;;;;;;;9.90;7.93;;;17.80;55.90;;;;;;5086268;28;20475;-78
2023/04/14 07:01:49;;;;;;;9.57;8.10;;;17.90;56.00;;;;;;5089837;28;20459;-79
2023/04/14 07:04:18;;;;;;;11.50;8.00;;;17.90;56.00;;;;;;5087864;28;20999;-78
2023/04/14 07:06:46;;;;;;;9.23;7.50;;;18.00;56.10;;;;;;5090111;28;20492;-79
2023/04/14 07:09:14;;;;;;;10.60;8.40;;;18.10;56.20;;;;;;5080326;28;20484;-79
2023/04/14 07:11:45;;;;;;;10.93;7.40;;;18.10;56.40;;;;;;5086290;28;20448;-78
2023/04/14 07:14:13;;;;;;;11.57;6.57;;;18.20;56.40;;;;;;5088740;28;20451;-78
2023/04/14 07:16:41;;;;;;;9.07;7.03;;;18.30;56.40;;;;;;5089091;28;20457;-79
2023/04/14 07:19:10;;;;;;;7.87;7.07;;;18.30;56.60;;;;;;5089045;28;20464;-78
2023/04/14 07:21:37;;;;;;;7.57;6.77;;;18.40;56.70;;;;;;5089929;28;20452;-78
2023/04/14 07:24:05;;;;;;;8.27;6.40;;;18.50;56.80;;;;;;5084581;28;20456;-78
2023/04/14 07:26:33;;;;;;;7.57;6.43;;;18.60;56.80;;;;;;5088155;28;20437;-78
2023/04/14 07:29:03;;;;;;;9.33;6.90;;;18.60;57.00;;;;;;5082545;28;20465;-78
2023/04/14 07:31:33;;;;;;;11.60;5.97;;;18.70;57.10;;;;;;5087885;28;20460;-77
2023/04/14 07:34:01;;;;;;;7.50;6.00;;;18.80;57.20;;;;;;5095067;28;20455;-78
2023/04/14 07:36:30;;;;;;;8.57;6.63;;;18.80;57.40;;;;;;5088627;28;20453;-76
2023/04/14 07:38:59;;;;;;;6.93;6.10;;;18.90;57.50;;;;;;5090508;28;20462;-79
2023/04/14 07:41:27;;;;;;;6.87;5.90;;;19.00;57.60;;;;;;5090043;28;20527;-77
2023/04/14 07:43:57;;;;;;;6.40;5.80;;;19.10;57.60;;;;;;5090814;28;20444;-78
2023/04/14 07:46:27;;;;;;;6.07;5.33;;;19.20;58.00;;;;;;5091053;28;20468;-77
2023/04/14 07:48:56;;;;;;;5.73;5.10;;;19.30;58.10;;;;;;5083118;28;20463;-78
2023/04/14 07:51:24;;;;;;;5.87;5.27;;;19.40;58.30;;;;;;5085888;28;20452;-78
2023/04/14 07:53:52;;;;;;;5.83;5.23;;;19.50;58.60;;;;;;5088430;28;20445;-78
2023/04/14 07:56:20;;;;;;;6.50;5.47;;;19.60;58.60;;;;;;5089443;28;20456;-78
2023/04/14 07:58:48;;;;;;;6.63;5.20;;;19.70;58.80;;;;;;5082345;28;20476;-80
2023/04/14 08:01:17;;;;;;;7.00;5.20;;;19.80;59.00;;;;;;5091873;28;20453;-78
2023/04/14 08:03:46;;;;;;;5.57;5.10;;;19.90;58.80;;;;;;5085230;28;20463;-79
2023/04/14 08:06:15;;;;;;;6.93;4.80;;;20.10;59.40;;;;;;5086855;28;20464;-78
2023/04/14 08:08:43;;;;;;;12.17;5.30;;;20.20;60.10;;;;;;5089124;28;20477;-77
2023/04/14 08:11:11;;;;;;;9.17;5.30;;;20.40;60.40;;;;;;5087143;28;20460;-79
2023/04/14 08:13:39;;;;;;;7.63;4.90;;;20.50;60.50;;;;;;5090738;28;20460;-79
2023/04/14 08:16:08;;;;;;;7.63;4.77;;;20.70;60.90;;;;;;5092318;28;20445;-77
2023/04/14 08:18:36;;;;;;;5.17;4.67;;;20.90;61.20;;;;;;5089629;28;20549;-79
2023/04/14 08:21:06;;;;;;;5.10;4.70;;;21.10;61.30;;;;;;5092969;28;20456;-79
2023/04/14 08:23:34;;;;;;;5.20;4.67;;;21.30;61.60;;;;;;5090783;28;20528;-79
2023/04/14 08:26:02;;;;;;;4.97;4.57;;;21.50;61.50;;;;;;5084325;28;20469;-79
2023/04/14 08:28:31;;;;;;;6.10;5.20;;;21.60;61.60;;;;;;5089703;28;20450;-76
2023/04/14 08:30:59;;;;;;;6.93;5.20;;;21.80;62.30;;;;;;5086275;28;20455;-79
2023/04/14 08:33:27;;;;;;;6.37;4.73;;;22.00;62.20;;;;;;5087553;28;20441;-77
2023/04/14 08:35:55;;;;;;;5.23;4.80;;;22.10;62.30;;;;;;5080868;28;20441;-76
2023/04/14 08:38:28;;;;;;;8.40;4.97;;;22.30;62.80;;;;;;5087353;28;20513;-78
2023/04/14 08:40:56;;;;;;;5.53;4.60;;;22.50;62.80;;;;;;5088230;28;20455;-78
2023/04/14 08:43:24;;;;;;;5.47;4.87;;;22.70;63.20;;;;;;5084775;28;20467;-79
2023/04/14 08:45:52;;;;;;;5.30;4.80;;;22.90;62.90;;;;;;5093686;28;20469;-78
2023/04/14 08:48:20;;;;;;;7.17;5.00;;;23.10;62.90;;;;;;5086481;28;20448;-80
2023/04/14 08:50:56;;;;;;;6.27;4.57;;;23.20;62.80;;;;;;5089908;28;20440;-78
2023/04/14 08:53:24;;;;;;;7.93;6.07;;;23.40;62.80;;;;;;5089839;28;20449;-79
2023/04/14 08:55:54;;;;;;;10.40;7.20;;;23.30;54.30;;;;;;5088867;28;20457;-80
2023/04/14 08:58:25;;;;;;;8.67;6.00;;;20.90;45.10;;;;;;5094392;28;20441;-80
2023/04/14 09:00:52;;;;;;;13.80;6.70;;;18.80;47.40;;;;;;5088530;28;20440;-80
2023/04/14 09:03:20;;;;;;;11.70;5.97;;;18.30;46.30;;;;;;5094058;28;20445;-80
2023/04/14 09:05:48;;;;;;;12.30;5.40;;;18.10;48.80;;;;;;5085445;28;20617;-80
2023/04/14 09:08:16;;;;;;;6.23;4.77;;;18.80;48.10;;;;;;5085999;28;20448;-80
2023/04/14 09:10:45;;;;;;;11.40;5.30;;;19.20;48.90;;;;;;5088354;28;20527;-81
2023/04/14 09:13:14;;;;;;;10.73;4.67;;;18.80;44.80;;;;;;5093203;28;20453;-79
2023/04/14 09:15:43;;;;;;;8.00;3.60;;;18.90;46.80;;;;;;5087333;28;20435;-81
2023/04/14 09:18:11;;;;;;;10.00;4.37;;;19.70;47.40;;;;;;5092962;28;20451;-82
2023/04/14 09:20:39;;;;;;;7.50;4.00;;;19.70;44.40;;;;;;5094334;28;20495;-82
2023/04/14 09:23:09;;;;;;;12.20;3.87;;;20.30;45.20;;;;;;5089230;28;20539;-80
2023/04/14 09:25:38;;;;;;;14.07;6.33;;;20.40;43.80;;;;;;5087562;28;20475;-80
2023/04/14 09:28:06;;;;;;;9.93;3.73;;;20.50;43.10;;;;;;5093973;28;20444;-81
2023/04/14 09:30:35;;;;;;;5.27;2.97;;;21.00;42.10;;;;;;5091020;28;20472;-80
2023/04/14 09:33:06;;;;;;;10.47;3.47;;;19.70;40.80;;;;;;5090907;28;20848;-79
2023/04/14 09:35:44;;;;;;;9.17;3.60;;;20.00;41.70;;;;;;5080951;28;20437;-79
2023/04/14 09:38:12;;;;;;;7.97;3.40;;;19.70;40.00;;;;;;5091365;28;20440;-80
2023/04/14 09:40:42;;;;;;;6.17;3.00;;;19.60;38.50;;;;;;5089564;28;20878;-80
2023/04/14 09:43:11;;;;;;;10.40;3.20;;;19.20;40.00;;;;;;5092299;28;20424;-81
2023/04/14 09:45:44;;;;;;;6.63;3.00;;;18.90;39.70;;;;;;5096211;28;20468;-81
2023/04/14 09:48:12;;;;;;;10.13;3.63;;;18.30;39.70;;;;;;5094329;28;20462;-81
2023/04/14 09:50:59;;;;;;;8.83;3.47;;;18.50;40.60;;;;;;5076680;28;20461;-81
2023/04/14 09:53:28;;;;;;;4.00;2.47;;;19.40;39.80;;;;;;5086187;28;20452;-79
2023/04/14 09:55:56;;;;;;;5.70;2.13;;;20.70;41.10;;;;;;5084278;28;20463;-78
2023/04/14 09:58:24;;;;;;;6.80;2.20;;;21.80;40.10;;;;;;5091512;28;20459;-74
2023/04/14 10:00:58;;;;;;;2.90;1.60;;;22.70;39.30;;;;;;5089555;28;20532;-78
2023/04/14 10:03:34;;;;;;;12.27;1.90;;;23.40;38.50;;;;;;5091380;28;20486;-79
2023/04/14 10:06:06;;;;;;;4.17;1.80;;;24.00;37.90;;;;;;5090194;28;20559;-79
2023/04/14 10:08:38;;;;;;;9.83;1.97;;;24.50;37.60;;;;;;5087046;28;20461;-77
2023/04/14 10:11:16;;;;;;;6.77;1.73;;;24.90;37.30;;;;;;5085774;28;20457;-80
2023/04/14 10:13:45;;;;;;;5.23;1.73;;;25.30;36.90;;;;;;5085883;28;20476;-80
2023/04/14 10:16:14;;;;;;;8.40;2.10;;;25.60;36.80;;;;;;5089927;28;20440;-80
2023/04/14 10:18:42;;;;;;;3.30;1.77;;;25.90;36.50;;;;;;5089534;28;20461;-81
2023/04/14 10:21:10;;;;;;;4.40;1.40;;;26.20;36.40;;;;;;5087964;28;20463;-80
2023/04/14 10:23:42;;;;;;;3.80;1.43;;;26.40;36.20;;;;;;5086811;28;20448;-80
2023/04/14 10:26:11;;;;;;;3.60;1.43;;;26.70;36.10;;;;;;5091618;28;20468;-79
2023/04/14 10:28:40;;;;;;;3.90;1.40;;;26.90;35.90;;;;;;5089268;28;20448;-80
2023/04/14 10:31:11;;;;;;;4.33;1.93;;;27.10;36.00;;;;;;5095968;28;20441;-79
2023/04/14 10:33:41;;;;;;;4.53;1.40;;;27.30;35.80;;;;;;5095218;28;20460;-79
2023/04/14 10:36:09;;;;;;;5.23;1.50;;;27.40;35.60;;;;;;5094902;28;20805;-79
2023/04/14 10:38:38;;;;;;;2.33;1.60;;;27.60;35.70;;;;;;5090065;28;20423;-79
2023/04/14 10:41:06;;;;;;;3.17;1.60;;;27.70;35.60;;;;;;5085425;28;20424;-78
2023/04/14 10:43:35;;;;;;;2.70;1.70;;;27.90;35.50;;;;;;5090961;28;20453;-79
2023/04/14 10:46:04;;;;;;;1.83;1.60;;;28.10;35.30;;;;;;5093400;28;20408;-79
2023/04/14 10:48:33;;;;;;;3.90;1.60;;;28.00;35.10;;;;;;5088530;28;20488;-80
2023/04/14 10:51:04;;;;;;;4.93;1.80;;;28.00;34.80;;;;;;5091259;28;20522;-79
2023/04/14 10:53:37;;;;;;;3.33;1.60;;;27.80;34.90;;;;;;5084192;28;20468;-79
2023/04/14 10:56:06;;;;;;;2.20;1.60;;;27.80;35.70;;;;;;5086122;28;20432;-78
2023/04/14 10:58:34;;;;;;;2.83;1.20;;;28.00;36.30;;;;;;5080947;28;20431;-79
2023/04/14 11:01:24;;;;;;;3.33;1.90;;;28.20;36.00;;;;;;5077749;28;20411;-79
2023/04/14 11:03:53;;;;;;;2.10;1.53;;;28.50;35.70;;;;;;5085368;28;20455;-79
2023/04/14 11:06:52;;;;;;;5.20;1.47;;;28.60;35.60;;;;;;5076657;28;20447;-78
2023/04/14 11:09:33;;;;;;;3.17;1.67;;;28.80;35.40;;;;;;5077269;28;20472;-77
2023/04/14 11:12:06;;;;;;;1.80;1.70;;;29.00;35.20;;;;;;5085054;28;20459;-80
2023/04/14 11:14:35;;;;;;;1.80;1.60;;;29.20;35.20;;;;;;5086032;28;20424;-79
2023/04/14 11:17:04;;;;;;;1.73;1.60;;;30.00;34.90;;;;;;5088653;28;20449;-79
2023/04/14 11:19:32;;;;;;;2.70;1.50;;;31.20;33.50;;;;;;5087227;28;20496;-80
2023/04/14 11:22:01;;;;;;;2.60;1.93;;;32.60;32.20;;;;;;5089243;28;20417;-80
2023/04/14 11:24:30;;;;;;;2.60;1.60;;;33.70;30.20;;;;;;5089480;28;20452;-79
2023/04/14 11:26:58;;;;;;;3.33;1.60;;;34.80;29.10;;;;;;5074385;28;20462;-79
2023/04/14 11:29:26;;;;;;;1.70;1.60;;;34.80;28.00;;;;;;5089882;28;20469;-79
2023/04/14 11:32:02;;;;;;;2.50;1.77;;;35.70;28.40;;;;;;5087900;28;20446;-78
2023/04/14 11:34:30;;;;;;;1.73;1.47;;;36.30;27.20;;;;;;5092351;28;20472;-77
2023/04/14 11:36:58;;;;;;;1.60;1.50;;;36.70;26.90;;;;;;5083814;28;20441;-77
2023/04/14 11:39:28;;;;;;;3.17;1.30;;;37.40;26.00;;;;;;5076925;28;20478;-79
2023/04/14 11:41:58;;;;;;;2.20;1.60;;;37.30;26.30;;;;;;5088533;28;20439;-79
2023/04/14 11:44:26;;;;;;;2.23;1.90;;;37.30;25.40;;;;;;5087881;28;20557;-76
2023/04/14 11:46:54;;;;;;;1.87;1.77;;;35.90;26.90;;;;;;5087382;28;20475;-80
2023/04/14 11:49:33;;;;;;;3.33;1.50;;;37.10;26.50;;;;;;5095242;28;20469;-79
2023/04/14 11:52:05;;;;;;;1.60;1.50;;;38.20;25.70;;;;;;5088484;28;20436;-79
2023/04/14 11:54:36;;;;;;;1.77;1.50;;;39.00;24.70;;;;;;5093132;28;20444;-79
2023/04/14 11:57:09;;;;;;;1.30;1.30;;;39.80;24.30;;;;;;5092163;28;20443;-80
2023/04/14 11:59:44;;;;;;;2.27;1.50;;;40.30;23.70;;;;;;5089735;28;20476;-80
2023/04/14 12:02:15;;;;;;;1.43;1.33;;;40.60;23.30;;;;;;5099101;28;20443;-79
2023/04/14 12:04:44;;;;;;;1.30;1.30;;;41.20;23.10;;;;;;5099260;28;20455;-80
2023/04/14 12:07:13;;;;;;;1.30;1.20;;;41.40;22.70;;;;;;5098154;28;20478;-80
2023/04/14 12:09:44;;;;;;;1.20;1.20;;;41.70;22.60;;;;;;5097379;28;20471;-80
2023/04/14 12:12:13;;;;;;;1.17;1.17;;;42.00;22.30;;;;;;5097949;28;20429;-81
2023/04/14 12:14:44;;;;;;;1.40;1.30;;;42.40;22.20;;;;;;5099099;28;20508;-79
2023/04/14 12:17:12;;;;;;;1.63;1.27;;;42.40;22.00;;;;;;5096075;28;20476;-81
2023/04/14 12:19:41;;;;;;;1.47;1.47;;;42.70;21.90;;;;;;5099562;28;20468;-80
2023/04/14 12:22:09;;;;;;;1.17;1.17;;;43.00;21.70;;;;;;5098656;28;20440;-81
2023/04/14 12:24:38;;;;;;;1.50;1.50;;;43.10;21.50;;;;;;5093285;28;20749;-80
2023/04/14 12:27:08;;;;;;;1.70;1.40;;;43.30;21.40;;;;;;5096431;28;20503;-81
2023/04/14 12:29:36;;;;;;;1.20;1.20;;;42.90;20.90;;;;;;5099781;28;20472;-82
2023/04/14 12:32:10;;;;;;;1.80;1.70;;;40.40;22.60;;;;;;5104092;28;20448;-80
2023/04/14 12:34:38;;;;;;;2.20;2.00;;;40.20;23.10;;;;;;5098872;28;20812;-80
2023/04/14 12:37:07;;;;;;;1.73;1.63;;;40.00;23.70;;;;;;5098986;28;20454;-81
2023/04/14 12:39:49;;;;;;;1.33;1.33;;;40.70;23.00;;;;;;5090194;28;20542;-81
2023/04/14 12:42:18;;;;;;;1.30;1.30;;;41.50;22.70;;;;;;5091619;28;20440;-81
2023/04/14 12:44:56;;;;;;;1.50;1.40;;;42.10;22.10;;;;;;5094952;28;20437;-81
2023/04/14 12:47:28;;;;;;;1.60;1.50;;;41.80;21.40;;;;;;5093958;28;20525;-79
2023/04/14 12:49:57;;;;;;;1.70;1.60;;;40.20;23.50;;;;;;5097355;28;20480;-80
2023/04/14 12:52:39;;;;;;;1.60;1.50;;;41.00;23.20;;;;;;5087992;28;20483;-80
2023/04/14 12:55:07;;;;;;;1.30;1.30;;;41.50;22.70;;;;;;5089705;28;20433;-81
2023/04/14 12:57:37;;;;;;;1.40;1.40;;;42.10;22.50;;;;;;5094909;28;20448;-84